createdAt,value
2022-11-15T00:03:05.349Z,59.11
2022-11-15T00:08:26.193Z,59.16
2022-11-15T00:13:46.809Z,59.23
2022-11-15T00:19:07.881Z,59.38
2022-11-15T00:24:28.880Z,59.68
2022-11-15T00:29:49.764Z,59.69
2022-11-15T00:35:10.569Z,59.94
2022-11-15T00:40:31.705Z,59.87
2022-11-15T00:45:52.457Z,59.49
2022-11-15T00:51:13.240Z,59.84
2022-11-15T00:56:34.271Z,59.73
2022-11-15T01:01:55.653Z,59.87
2022-11-15T01:07:16.747Z,59.91
2022-11-15T01:12:37.624Z,59.79
2022-11-15T01:17:58.497Z,59.70
2022-11-15T01:23:19.173Z,59.66
2022-11-15T01:28:41.434Z,59.52
2022-11-15T01:34:02.212Z,59.23
2022-11-15T01:39:23.062Z,59.54
2022-11-15T01:44:52.010Z,59.14
2022-11-15T01:50:17.151Z,59.41
2022-11-15T01:55:38.407Z,59.48
2022-11-15T02:00:59.401Z,59.54
2022-11-15T02:06:20.259Z,59.87
2022-11-15T02:11:41.286Z,59.94
2022-11-15T02:17:15.615Z,60.22
2022-11-15T02:23:13.762Z,59.78
2022-11-15T02:28:49.562Z,60.62
2022-11-15T02:34:35.010Z,59.71
2022-11-15T02:40:11.987Z,59.74
2022-11-15T02:45:36.647Z,59.99
2022-11-15T02:50:57.986Z,60.44
2022-11-15T02:56:19.008Z,60.36
2022-11-15T03:01:58.561Z,60.12
2022-11-15T03:07:25.302Z,60.43
2022-11-15T03:12:58.045Z,60.01
2022-11-15T03:18:24.791Z,60.11
2022-11-15T03:23:46.148Z,60.31
2022-11-15T03:29:13.180Z,60.22
2022-11-15T03:34:46.347Z,60.38
2022-11-15T03:40:07.637Z,60.47
2022-11-15T03:45:37.525Z,60.42
2022-11-15T03:50:58.309Z,60.48
2022-11-15T03:56:19.224Z,60.26
2022-11-15T04:01:39.996Z,60.14
2022-11-15T04:07:00.518Z,60.05
2022-11-15T04:12:32.067Z,60.19
2022-11-15T04:17:57.413Z,59.79
2022-11-15T04:23:39.222Z,60.17
2022-11-15T04:29:18.756Z,60.01
2022-11-15T04:34:39.701Z,60.16
2022-11-15T04:40:00.460Z,60.08
2022-11-15T04:45:20.997Z,59.87
2022-11-15T04:50:41.588Z,59.82
2022-11-15T04:56:02.176Z,59.79
2022-11-15T05:01:23.044Z,59.77
2022-11-15T05:06:43.823Z,59.47
2022-11-15T05:12:04.649Z,59.45
2022-11-15T05:17:25.506Z,59.41
2022-11-15T05:22:46.076Z,59.25
2022-11-15T05:28:06.864Z,59.48
2022-11-15T05:33:27.710Z,59.33
2022-11-15T05:38:49.725Z,58.78
2022-11-15T05:44:13.147Z,58.96
2022-11-15T05:49:36.100Z,58.89
2022-11-15T05:54:58.292Z,58.91
2022-11-15T06:00:19.608Z,59.24
2022-11-15T06:05:40.927Z,59.09
2022-11-15T06:11:08.699Z,58.68
2022-11-15T06:16:29.407Z,59.02
2022-11-15T06:21:50.000Z,59.34
2022-11-15T06:27:11.707Z,59.25
2022-11-15T06:32:32.674Z,59.60
2022-11-15T06:37:53.705Z,59.34
2022-11-15T06:43:17.924Z,59.27
2022-11-15T06:48:38.863Z,59.71
2022-11-15T06:53:59.593Z,59.57
2022-11-15T06:59:20.264Z,59.91
2022-11-15T07:04:41.178Z,59.51
2022-11-15T07:10:02.102Z,59.53
2022-11-15T07:15:26.288Z,59.33
2022-11-15T07:20:47.160Z,59.04
2022-11-15T07:26:09.359Z,59.07
2022-11-15T07:31:30.117Z,59.40
2022-11-15T07:36:50.931Z,59.33
2022-11-15T07:42:30.291Z,59.08
2022-11-15T07:47:51.453Z,59.10
2022-11-15T07:53:12.242Z,58.97
2022-11-15T07:58:32.773Z,59.05
2022-11-15T08:03:53.683Z,59.25
2022-11-15T08:09:14.545Z,59.44
2022-11-15T08:14:36.494Z,59.04
2022-11-15T08:19:57.561Z,59.31
2022-11-15T08:25:18.767Z,59.14
2022-11-15T08:30:42.790Z,59.13
2022-11-15T08:36:03.710Z,59.26
2022-11-15T08:41:42.693Z,58.73
2022-11-15T08:47:03.250Z,58.95
2022-11-15T08:52:24.235Z,59.06
2022-11-15T08:57:45.634Z,59.08
2022-11-15T09:03:07.575Z,59.30
2022-11-15T09:08:47.102Z,58.66
2022-11-15T09:14:08.432Z,59.00
2022-11-15T09:19:28.946Z,58.80
2022-11-15T09:24:50.105Z,59.01
2022-11-15T09:30:12.362Z,58.58
2022-11-15T09:35:33.526Z,58.59
2022-11-15T09:41:12.266Z,58.55
2022-11-15T09:46:53.159Z,58.78
2022-11-15T09:52:30.795Z,58.51
2022-11-15T09:57:41.257Z,58.50
2022-11-15T10:03:15.589Z,58.84
2022-11-15T10:08:33.526Z,58.92
2022-11-15T10:13:38.707Z,59.29
2022-11-15T10:19:18.591Z,59.27
2022-11-15T10:24:24.476Z,59.62
2022-11-15T10:29:27.625Z,59.61
2022-11-15T10:34:30.385Z,59.42
2022-11-15T10:39:34.819Z,59.71
2022-11-15T10:44:44.295Z,58.74
2022-11-15T10:49:55.527Z,59.14
2022-11-15T10:55:05.918Z,59.25
2022-11-15T11:00:28.881Z,59.22
2022-11-15T11:05:39.880Z,59.57
2022-11-15T11:11:03.918Z,59.34
2022-11-15T11:16:15.474Z,59.68
2022-11-15T11:21:42.739Z,59.79
2022-11-15T11:27:20.980Z,60.13
2022-11-15T11:32:54.858Z,60.45
2022-11-15T11:38:15.769Z,61.01
2022-11-15T11:43:46.619Z,61.79
2022-11-15T11:48:59.553Z,61.03
2022-11-15T11:54:43.705Z,62.83
2022-11-15T12:00:00.283Z,62.96
2022-11-15T12:05:18.351Z,63.72
2022-11-15T12:10:25.373Z,63.91
2022-11-15T12:15:31.779Z,64.53
2022-11-15T12:20:41.907Z,65.19
2022-11-15T12:25:58.191Z,65.63
2022-11-15T12:31:07.449Z,66.10
2022-11-15T12:36:32.297Z,67.09
2022-11-15T12:41:45.276Z,65.78
2022-11-15T12:46:47.492Z,65.98
2022-11-15T12:51:49.570Z,66.34
2022-11-15T12:57:21.291Z,68.33
2022-11-15T13:02:33.876Z,68.05
2022-11-15T13:07:36.119Z,67.16
2022-11-15T13:12:47.638Z,68.77
2022-11-15T13:17:51.777Z,67.90
2022-11-15T13:23:06.134Z,68.82
2022-11-15T13:28:11.460Z,68.77
2022-11-15T13:33:36.344Z,70.00
2022-11-15T13:38:41.165Z,68.97
2022-11-15T13:43:43.696Z,69.01
2022-11-15T13:48:47.795Z,69.37
2022-11-15T13:54:15.330Z,71.03
2022-11-15T13:59:24.089Z,70.47
2022-11-15T14:04:30.843Z,70.05
2022-11-15T14:09:39.139Z,70.85
2022-11-15T14:14:46.848Z,71.00
2022-11-15T14:19:49.166Z,70.16
2022-11-15T14:25:14.571Z,71.99
2022-11-15T14:30:19.564Z,70.56
2022-11-15T14:35:23.743Z,70.82
2022-11-15T14:40:25.909Z,70.86
2022-11-15T14:45:28.754Z,71.11
2022-11-15T14:50:31.229Z,71.20
2022-11-15T14:55:37.300Z,71.33
2022-11-15T15:00:40.810Z,71.47
2022-11-15T15:05:44.675Z,71.49
2022-11-15T15:10:47.177Z,71.57
2022-11-15T15:15:50.784Z,71.72
2022-11-15T15:21:01.216Z,72.26
2022-11-15T15:26:04.162Z,71.84
2022-11-15T15:31:06.319Z,71.84
2022-11-15T15:36:16.218Z,72.53
2022-11-15T15:41:18.590Z,72.12
2022-11-15T15:46:21.606Z,72.51
2022-11-15T15:51:24.098Z,72.24
2022-11-15T15:56:26.225Z,72.38
2022-11-15T16:01:28.508Z,72.43
2022-11-15T16:06:42.442Z,73.69
2022-11-15T16:11:48.227Z,73.00
2022-11-15T16:16:50.272Z,72.67
2022-11-15T16:21:53.254Z,72.92
2022-11-15T16:26:55.397Z,72.73
2022-11-15T16:31:57.649Z,72.89
2022-11-15T16:36:59.763Z,72.77
2022-11-15T16:42:03.679Z,72.86
2022-11-15T16:47:05.805Z,72.97
2022-11-15T16:52:07.954Z,73.08
2022-11-15T16:57:11.636Z,73.41
2022-11-15T17:02:14.197Z,73.30
2022-11-15T17:07:16.394Z,73.32
2022-11-15T17:12:18.568Z,73.30
2022-11-15T17:17:21.831Z,73.69
2022-11-15T17:22:24.289Z,73.46
2022-11-15T17:27:26.448Z,73.48
2022-11-15T17:32:28.598Z,73.27
2022-11-15T17:37:30.783Z,73.67
2022-11-15T17:42:35.514Z,73.63
2022-11-15T17:47:38.169Z,73.50
2022-11-15T17:52:57.586Z,73.85
2022-11-15T17:57:59.789Z,73.91
2022-11-15T18:03:01.821Z,73.74
2022-11-15T18:08:04.087Z,74.13
2022-11-15T18:13:06.357Z,74.01
2022-11-15T18:18:08.623Z,74.22
2022-11-15T18:23:10.733Z,74.27
2022-11-15T18:28:12.862Z,74.33
2022-11-15T18:33:14.988Z,74.29
2022-11-15T18:38:17.205Z,74.31
2022-11-15T18:43:19.269Z,74.51
2022-11-15T18:48:21.504Z,74.45
2022-11-15T18:53:24.031Z,74.70
2022-11-15T18:58:26.151Z,74.66
2022-11-15T19:03:31.892Z,74.89
2022-11-15T19:08:35.652Z,74.58
2022-11-15T19:13:37.829Z,74.97
2022-11-15T19:18:40.182Z,74.93
2022-11-15T19:23:43.134Z,74.89
2022-11-15T19:28:45.291Z,75.07
2022-11-15T19:33:48.155Z,74.92
2022-11-15T19:38:50.622Z,75.11
2022-11-15T19:43:53.468Z,75.08
2022-11-15T19:48:55.547Z,75.05
2022-11-15T19:54:01.612Z,74.98
2022-11-15T19:59:05.196Z,74.91
2022-11-15T20:04:10.301Z,75.24
2022-11-15T20:09:14.242Z,75.11
2022-11-15T20:14:16.438Z,75.03
2022-11-15T20:19:18.542Z,75.22
2022-11-15T20:24:20.975Z,74.96
2022-11-15T20:29:23.622Z,75.02
2022-11-15T20:34:25.666Z,74.96
2022-11-15T20:39:27.812Z,75.00
2022-11-15T20:44:29.856Z,75.08
2022-11-15T20:49:31.905Z,75.08
2022-11-15T20:54:33.948Z,75.19
2022-11-15T20:59:36.086Z,75.10
2022-11-15T21:04:38.226Z,75.10
2022-11-15T21:10:01.787Z,75.06
2022-11-15T21:15:04.732Z,75.03
2022-11-15T21:20:07.266Z,74.81
2022-11-15T21:25:09.780Z,74.97
2022-11-15T21:30:12.846Z,74.84
2022-11-15T21:35:14.961Z,74.86
2022-11-15T21:40:17.305Z,74.87
2022-11-15T21:45:19.475Z,74.92
2022-11-15T21:50:21.535Z,74.74
2022-11-15T21:55:23.579Z,74.81
2022-11-15T22:00:44.209Z,74.63
2022-11-15T22:05:46.435Z,74.85
2022-11-15T22:10:49.280Z,74.72
2022-11-15T22:15:52.152Z,74.76
2022-11-15T22:20:59.319Z,74.98
2022-11-15T22:26:02.020Z,74.92
2022-11-15T22:31:04.741Z,75.04
2022-11-15T22:36:07.888Z,75.07
2022-11-15T22:41:10.080Z,75.01
2022-11-15T22:46:12.256Z,74.93
2022-11-15T22:51:14.433Z,74.90
2022-11-15T22:56:20.261Z,74.81
2022-11-15T23:01:22.841Z,74.87
2022-11-15T23:06:25.097Z,74.83
2022-11-15T23:11:45.813Z,74.79
2022-11-15T23:16:47.998Z,74.56
2022-11-15T23:22:08.758Z,74.80
2022-11-15T23:27:15.388Z,74.79
2022-11-15T23:32:36.319Z,74.63
2022-11-15T23:37:38.627Z,74.57
2022-11-15T23:42:40.812Z,74.46
2022-11-15T23:47:43.660Z,74.50
2022-11-15T23:52:45.821Z,74.33
2022-11-15T23:57:48.040Z,74.64
